aviador You're here:

LFKS Decoded Metar

SOLENZARA in CORSE ISL.
Report Time2018-05-28 05:00:00
UTC Time2018-05-28 05:07:38
Flight Rules vfr VFR
Wind270° at 04 kt
W.Decomp.*RWY 18: 0.1 kt HW 4.0 kt RCW
W.Rank270° ranks 2
Current wind is below 270° avg. (5.7)
Visibility9999 m
Phenomena:N/A
Clouds:N/A
Expected CloudBase > 2,400 ft AGL from Temp-Dew spread
CeilingNone
Temp19°C (ISA +4)
Dew Point13°C (68% RH)
AAT18.5°C
QNH1017 hPa
Density Alt623 ft
Elevation72 ft
Report Wrong Elevation
Raw Report
METAR LFKS 280500Z AUTO 27004KT CAVOK 19/13 Q1017=

Extra information for LFKS:More info

Metar Taf Metar & Taf Last 4 Metars F.Rules Stats Wind Profile Meteogram Temp Stats Airport Information Weather charts Add Link Nearby VenuesMetar ALERT Operation Metar Decoded Social comments